Time;durP1;ratioP1;P1;durP2;ratioP2;P2;SDS_P1;SDS_P2;PMS_P1;PMS_P2;Temp;Humidity;BMP_temperature;BMP_pressure;BME280_temperature;BME280_humidity;BME280_pressure;Samples;Min_cycle;Max_cycle;Signal;HPM_P1;HPM_P2
2021/04/29 00:01:36;;;;;;;8.47;7.50;;;;;;;;;;5033258;28;20862;-61
2021/04/29 00:04:03;;;;;;;10.60;8.90;;;;;;;;;;5033084;28;20840;-61
2021/04/29 00:06:29;;;;;;;10.00;8.10;;;;;;;;;;5033114;28;20867;-61
2021/04/29 00:08:56;;;;;;;10.70;8.00;;;;;;;;;;5033205;28;20486;-61
2021/04/29 00:11:23;;;;;;;10.60;9.03;;;;;;;;;;5033253;28;20453;-61
2021/04/29 00:13:50;;;;;;;9.23;7.83;;;;;;;;;;5033254;28;20466;-60
2021/04/29 00:16:16;;;;;;;9.60;8.60;;;;;;;;;;5032993;28;20947;-60
2021/04/29 00:18:44;;;;;;;9.67;8.70;;;;;;;;;;5032701;28;21000;-60
2021/04/29 00:21:11;;;;;;;10.00;8.07;;;;;;;;;;5032851;28;20556;-60
2021/04/29 00:23:38;;;;;;;10.20;7.80;;;;;;;;;;5034491;28;20481;-60
2021/04/29 00:26:04;;;;;;;10.20;7.60;;;;;;;;;;5037428;28;20446;-61
2021/04/29 00:28:31;;;;;;;9.63;7.77;;;;;;;;;;5037691;28;20488;-60
2021/04/29 00:30:58;;;;;;;9.40;7.33;;;;;;;;;;5038391;28;20448;-61
2021/04/29 00:33:25;;;;;;;10.67;9.00;;;;;;;;;;5038022;28;20470;-61
2021/04/29 00:35:52;;;;;;;9.37;8.27;;;;;;;;;;5038049;28;20452;-61
2021/04/29 00:38:19;;;;;;;10.30;8.07;;;;;;;;;;5038336;28;20473;-60
2021/04/29 00:40:46;;;;;;;10.70;7.47;;;;;;;;;;5038819;28;20513;-61
2021/04/29 00:43:14;;;;;;;10.30;8.47;;;;;;;;;;5038787;28;21017;-61
2021/04/29 00:45:41;;;;;;;11.20;8.20;;;;;;;;;;5038530;28;20493;-60
2021/04/29 00:48:08;;;;;;;12.20;7.67;;;;;;;;;;5039157;28;20502;-61
2021/04/29 00:50:35;;;;;;;12.70;8.50;;;;;;;;;;5038570;28;20503;-60
2021/04/29 00:53:02;;;;;;;10.03;7.07;;;;;;;;;;5037453;28;20455;-60
2021/04/29 00:55:29;;;;;;;12.23;8.67;;;;;;;;;;5037184;28;20511;-60
2021/04/29 00:57:56;;;;;;;9.97;8.87;;;;;;;;;;5037008;28;20447;-61
2021/04/29 01:00:23;;;;;;;10.23;8.50;;;;;;;;;;5036814;28;20947;-61
2021/04/29 01:02:51;;;;;;;11.23;7.77;;;;;;;;;;5037637;28;20461;-61
2021/04/29 01:05:20;;;;;;;11.00;8.80;;;;;;;;;;5037437;28;20484;-60
2021/04/29 01:07:49;;;;;;;13.90;8.73;;;;;;;;;;5037128;28;20958;-61
2021/04/29 01:10:19;;;;;;;12.30;9.30;;;;;;;;;;5037726;28;20459;-61
2021/04/29 01:12:48;;;;;;;10.10;8.83;;;;;;;;;;5036859;28;20455;-61
2021/04/29 01:15:16;;;;;;;11.00;9.17;;;;;;;;;;5036910;28;20520;-61
2021/04/29 01:17:43;;;;;;;11.00;9.90;;;;;;;;;;5036297;28;20452;-62
2021/04/29 01:20:14;;;;;;;10.70;9.57;;;;;;;;;;5037025;28;20445;-61
2021/04/29 01:22:42;;;;;;;11.27;10.10;;;;;;;;;;5036832;28;20904;-62
2021/04/29 01:25:12;;;;;;;11.50;9.27;;;;;;;;;;5036407;28;20487;-61
2021/04/29 01:27:40;;;;;;;12.93;9.70;;;;;;;;;;5036333;28;20447;-61
2021/04/29 01:30:08;;;;;;;11.60;10.40;;;;;;;;;;5036905;28;20456;-61
2021/04/29 01:32:36;;;;;;;13.60;10.63;;;;;;;;;;5036042;28;20445;-61
2021/04/29 01:35:03;;;;;;;13.50;9.33;;;;;;;;;;5034992;28;20477;-60
2021/04/29 01:37:30;;;;;;;9.27;8.47;;;;;;;;;;5035988;28;20458;-61
2021/04/29 01:39:57;;;;;;;12.47;9.80;;;;;;;;;;5035605;28;20990;-61
2021/04/29 01:42:24;;;;;;;11.13;9.93;;;;;;;;;;5035703;28;20928;-62
2021/04/29 01:44:52;;;;;;;13.67;10.67;;;;;;;;;;5035845;28;20887;-61
2021/04/29 01:47:19;;;;;;;10.87;9.77;;;;;;;;;;5035887;28;20441;-61
2021/04/29 01:49:46;;;;;;;11.67;10.47;;;;;;;;;;5035718;28;20483;-61
2021/04/29 01:52:14;;;;;;;12.57;11.37;;;;;;;;;;5035318;28;20491;-61
2021/04/29 01:54:41;;;;;;;12.40;11.20;;;;;;;;;;5035250;28;20500;-60
2021/04/29 01:57:08;;;;;;;11.97;10.73;;;;;;;;;;5035311;28;20449;-60
2021/04/29 01:59:35;;;;;;;12.40;11.20;;;;;;;;;;5035293;28;20932;-60
2021/04/29 02:02:02;;;;;;;12.50;10.87;;;;;;;;;;5035459;28;20449;-60
2021/04/29 02:04:29;;;;;;;12.50;10.97;;;;;;;;;;5035347;28;20492;-60
2021/04/29 02:06:56;;;;;;;13.23;11.83;;;;;;;;;;5035095;28;20447;-60
2021/04/29 02:09:23;;;;;;;15.20;12.10;;;;;;;;;;5035395;28;20898;-60
2021/04/29 02:11:52;;;;;;;13.80;12.50;;;;;;;;;;5035754;28;20519;-60
2021/04/29 02:14:22;;;;;;;14.13;11.57;;;;;;;;;;5035190;28;20470;-60
2021/04/29 02:16:49;;;;;;;14.57;13.17;;;;;;;;;;5035415;28;20449;-60
2021/04/29 02:19:20;;;;;;;14.97;13.57;;;;;;;;;;5035206;28;20455;-60
2021/04/29 02:21:48;;;;;;;15.27;13.87;;;;;;;;;;5034843;28;20434;-61
2021/04/29 02:24:15;;;;;;;14.73;13.30;;;;;;;;;;5034580;28;20480;-61
2021/04/29 02:26:42;;;;;;;15.10;13.47;;;;;;;;;;5035835;28;20453;-61
2021/04/29 02:29:08;;;;;;;15.43;13.93;;;;;;;;;;5034898;28;20849;-61
2021/04/29 02:31:36;;;;;;;14.70;13.20;;;;;;;;;;5035184;28;20449;-61
2021/04/29 02:34:04;;;;;;;14.87;13.37;;;;;;;;;;5036645;28;20457;-61
2021/04/29 02:36:32;;;;;;;15.73;14.17;;;;;;;;;;5035118;28;20483;-61
2021/04/29 02:38:59;;;;;;;15.20;13.70;;;;;;;;;;5035911;28;20461;-61
2021/04/29 02:41:26;;;;;;;16.77;14.97;;;;;;;;;;5035314;28;20449;-61
2021/04/29 02:43:53;;;;;;;16.77;14.07;;;;;;;;;;5035229;28;20476;-61
2021/04/29 02:46:20;;;;;;;15.30;13.83;;;;;;;;;;5033995;28;20496;-61
2021/04/29 02:48:47;;;;;;;16.80;15.00;;;;;;;;;;5034369;28;21000;-61
2021/04/29 02:51:14;;;;;;;16.30;14.60;;;;;;;;;;5034559;28;20429;-62
2021/04/29 02:53:43;;;;;;;16.40;14.73;;;;;;;;;;5035464;28;20465;-61
2021/04/29 02:56:10;;;;;;;17.30;15.50;;;;;;;;;;5034763;28;20449;-61
2021/04/29 02:58:47;;;;;;;16.27;14.57;;;;;;;;;;5034845;28;20445;-62
2021/04/29 03:01:14;;;;;;;18.33;15.00;;;;;;;;;;5034741;28;20453;-61
2021/04/29 03:03:41;;;;;;;15.10;13.60;;;;;;;;;;5036150;28;20473;-61
2021/04/29 03:06:08;;;;;;;16.27;14.67;;;;;;;;;;5035006;28;20452;-61
2021/04/29 03:08:35;;;;;;;18.83;15.90;;;;;;;;;;5034547;28;20481;-61
2021/04/29 03:11:04;;;;;;;17.00;15.40;;;;;;;;;;5034619;28;20445;-61
2021/04/29 03:13:30;;;;;;;18.60;16.70;;;;;;;;;;5034162;28;20473;-61
2021/04/29 03:15:57;;;;;;;18.37;16.57;;;;;;;;;;5034316;28;20823;-61
2021/04/29 03:18:24;;;;;;;17.50;15.73;;;;;;;;;;5034114;28;20450;-61
2021/04/29 03:20:51;;;;;;;19.50;17.60;;;;;;;;;;5034055;28;20456;-61
2021/04/29 03:23:17;;;;;;;20.17;16.40;;;;;;;;;;5033704;28;20453;-61
2021/04/29 03:25:45;;;;;;;18.73;16.83;;;;;;;;;;5034287;28;20445;-61
2021/04/29 03:28:13;;;;;;;19.10;17.20;;;;;;;;;;5033457;28;21004;-61
2021/04/29 03:30:40;;;;;;;19.00;16.93;;;;;;;;;;5033363;28;20441;-61
2021/04/29 03:33:06;;;;;;;18.33;16.50;;;;;;;;;;5033581;28;20945;-62
2021/04/29 03:35:34;;;;;;;21.13;17.20;;;;;;;;;;5033917;28;20475;-61
2021/04/29 03:38:00;;;;;;;18.63;16.73;;;;;;;;;;5034056;28;20446;-61
2021/04/29 03:40:27;;;;;;;19.70;17.80;;;;;;;;;;5033643;28;20461;-61
2021/04/29 03:42:54;;;;;;;19.80;17.90;;;;;;;;;;5034094;28;20952;-61
2021/04/29 03:45:22;;;;;;;20.30;18.10;;;;;;;;;;5033576;28;20485;-61
2021/04/29 03:47:49;;;;;;;20.43;18.43;;;;;;;;;;5033292;28;20998;-62
2021/04/29 03:50:16;;;;;;;22.90;19.50;;;;;;;;;;5033188;28;20484;-61
2021/04/29 03:52:43;;;;;;;21.80;19.50;;;;;;;;;;5033959;28;20457;-61
2021/04/29 03:55:10;;;;;;;19.87;17.90;;;;;;;;;;5033414;28;20461;-61
2021/04/29 03:57:37;;;;;;;22.23;17.93;;;;;;;;;;5032658;28;20460;-60
2021/04/29 04:00:04;;;;;;;19.63;17.70;;;;;;;;;;5032919;28;20449;-61
2021/04/29 04:02:32;;;;;;;23.60;20.37;;;;;;;;;;5033079;28;20865;-60
2021/04/29 04:08:04;;;;;;;23.27;20.87;;;;;;;;;;5132282;27;21058;-62
2021/04/29 04:10:31;;;;;;;22.93;20.87;;;;;;;;;;5132095;28;20452;-61
2021/04/29 04:12:58;;;;;;;23.73;20.50;;;;;;;;;;5133615;28;20527;-60
2021/04/29 04:15:25;;;;;;;23.10;20.60;;;;;;;;;;5134014;28;20460;-61
2021/04/29 04:17:51;;;;;;;24.27;20.90;;;;;;;;;;5132525;27;20452;-61
2021/04/29 04:20:18;;;;;;;24.13;21.83;;;;;;;;;;5132068;27;20823;-62
2021/04/29 04:22:45;;;;;;;23.43;21.23;;;;;;;;;;5132384;27;20459;-61
2021/04/29 04:25:13;;;;;;;22.70;20.30;;;;;;;;;;5132373;27;20461;-61
2021/04/29 04:27:40;;;;;;;23.37;21.07;;;;;;;;;;5128622;22;20505;-56
2021/04/29 04:30:07;;;;;;;23.73;21.40;;;;;;;;;;5094746;28;20919;-56
2021/04/29 04:32:34;;;;;;;25.17;22.47;;;;;;;;;;5094876;28;20484;-55
2021/04/29 04:35:01;;;;;;;23.70;21.50;;;;;;;;;;5094763;28;20442;-56
2021/04/29 04:37:28;;;;;;;24.73;22.03;;;;;;;;;;5095150;28;20498;-56
2021/04/29 04:39:54;;;;;;;26.07;22.37;;;;;;;;;;5094907;28;20443;-55
2021/04/29 04:42:22;;;;;;;25.70;22.87;;;;;;;;;;5094538;28;21000;-55
2021/04/29 04:44:49;;;;;;;22.30;20.00;;;;;;;;;;5095467;28;20447;-55
2021/04/29 04:47:15;;;;;;;23.80;21.47;;;;;;;;;;5095442;28;20486;-56
2021/04/29 04:49:42;;;;;;;23.93;21.30;;;;;;;;;;5094873;28;20447;-56
2021/04/29 04:52:09;;;;;;;26.30;22.33;;;;;;;;;;5095526;28;20825;-56
2021/04/29 04:54:36;;;;;;;23.23;20.83;;;;;;;;;;5095015;28;20956;-56
2021/04/29 04:57:02;;;;;;;24.20;21.63;;;;;;;;;;5094611;28;20470;-56
2021/04/29 04:59:30;;;;;;;25.60;22.90;;;;;;;;;;5094571;28;20451;-56
2021/04/29 05:01:57;;;;;;;25.27;22.50;;;;;;;;;;5094341;28;20499;-55
2021/04/29 05:04:25;;;;;;;24.80;22.27;;;;;;;;;;5094022;28;20434;-56
2021/04/29 05:06:52;;;;;;;24.07;21.77;;;;;;;;;;5094412;28;20482;-57
2021/04/29 05:09:19;;;;;;;25.83;23.17;;;;;;;;;;5094186;28;20476;-56
2021/04/29 05:11:46;;;;;;;23.17;20.83;;;;;;;;;;5094850;28;20541;-56
2021/04/29 05:14:13;;;;;;;24.53;21.80;;;;;;;;;;5093927;28;20430;-56
2021/04/29 05:16:40;;;;;;;24.93;22.33;;;;;;;;;;5094164;28;20458;-57
2021/04/29 05:19:07;;;;;;;26.97;24.17;;;;;;;;;;5082104;28;20583;-56
2021/04/29 05:21:34;;;;;;;24.70;22.30;;;;;;;;;;5080121;28;20439;-56
2021/04/29 05:24:00;;;;;;;24.80;22.10;;;;;;;;;;5079607;28;21003;-54
2021/04/29 05:26:27;;;;;;;25.07;22.47;;;;;;;;;;5079700;28;20520;-57
2021/04/29 05:28:54;;;;;;;26.50;23.73;;;;;;;;;;5080630;28;20434;-55
2021/04/29 05:31:21;;;;;;;27.47;24.57;;;;;;;;;;5081293;28;20450;-57
2021/04/29 05:33:48;;;;;;;27.00;24.17;;;;;;;;;;5080606;28;20447;-57
2021/04/29 05:36:15;;;;;;;32.17;27.70;;;;;;;;;;5080867;28;20463;-57
2021/04/29 05:38:42;;;;;;;29.90;26.73;;;;;;;;;;5080572;28;20450;-57
2021/04/29 05:41:09;;;;;;;29.80;26.30;;;;;;;;;;5080369;28;20451;-57
2021/04/29 05:43:35;;;;;;;28.63;25.53;;;;;;;;;;5080970;28;20452;-57
2021/04/29 05:46:02;;;;;;;31.20;26.10;;;;;;;;;;5079276;28;20574;-56
2021/04/29 05:48:29;;;;;;;38.73;26.00;;;;;;;;;;5079704;28;20451;-56
2021/04/29 05:50:57;;;;;;;29.37;26.10;;;;;;;;;;5080221;28;20486;-56
2021/04/29 05:53:24;;;;;;;31.97;26.70;;;;;;;;;;5080088;28;20538;-57
2021/04/29 05:55:51;;;;;;;30.07;26.80;;;;;;;;;;5079374;28;20451;-56
2021/04/29 05:58:17;;;;;;;27.90;24.90;;;;;;;;;;5079689;28;20475;-56
2021/04/29 06:00:44;;;;;;;26.10;22.73;;;;;;;;;;5079714;28;20444;-56
2021/04/29 06:03:11;;;;;;;30.47;23.67;;;;;;;;;;5080044;28;20520;-56
2021/04/29 06:05:38;;;;;;;29.53;25.40;;;;;;;;;;5079536;28;20532;-56
2021/04/29 06:08:06;;;;;;;29.40;25.90;;;;;;;;;;5079778;28;20556;-56
2021/04/29 06:10:35;;;;;;;27.90;24.97;;;;;;;;;;5080027;28;20477;-56
2021/04/29 06:13:02;;;;;;;29.90;26.57;;;;;;;;;;5079729;28;20455;-56
2021/04/29 06:15:28;;;;;;;32.23;26.37;;;;;;;;;;5080890;28;20448;-56
2021/04/29 06:17:55;;;;;;;34.53;30.90;;;;;;;;;;5083755;28;20451;-56
2021/04/29 06:20:22;;;;;;;35.47;30.70;;;;;;;;;;5084705;28;20474;-57
2021/04/29 06:22:49;;;;;;;35.40;31.60;;;;;;;;;;5084779;28;20474;-56
2021/04/29 06:25:17;;;;;;;38.00;33.83;;;;;;;;;;5084691;28;20795;-57
2021/04/29 06:27:44;;;;;;;36.83;32.07;;;;;;;;;;5083418;28;20494;-57
2021/04/29 06:30:11;;;;;;;41.30;31.75;;;;;;;;;;5084179;28;20459;-58
2021/04/29 06:32:38;;;;;;;33.43;29.83;;;;;;;;;;5083517;28;20204;-56
2021/04/29 06:35:05;;;;;;;33.57;29.97;;;;;;;;;;5082637;28;20882;-58
2021/04/29 06:37:32;;;;;;;32.63;28.93;;;;;;;;;;5083885;28;20463;-56
2021/04/29 06:39:59;;;;;;;34.73;30.87;;;;;;;;;;5083818;28;20448;-56
2021/04/29 06:42:26;;;;;;;28.97;25.97;;;;;;;;;;5084824;28;20448;-56
2021/04/29 06:44:53;;;;;;;29.30;26.20;;;;;;;;;;5084736;28;20447;-56
2021/04/29 06:47:23;;;;;;;29.43;26.50;;;;;;;;;;5084226;28;20487;-56
2021/04/29 06:49:49;;;;;;;32.30;28.90;;;;;;;;;;5084848;28;20443;-57
2021/04/29 06:52:17;;;;;;;31.50;27.77;;;;;;;;;;5084680;28;20443;-57
2021/04/29 06:54:44;;;;;;;30.70;27.43;;;;;;;;;;5085004;28;20447;-56
2021/04/29 06:57:11;;;;;;;32.30;28.80;;;;;;;;;;5083847;28;20464;-57
2021/04/29 06:59:39;;;;;;;32.07;28.53;;;;;;;;;;5084206;28;20914;-57
2021/04/29 07:02:05;;;;;;;34.45;28.60;;;;;;;;;;5084389;28;20443;-57
2021/04/29 07:04:32;;;;;;;32.80;28.00;;;;;;;;;;5083843;28;20219;-57
2021/04/29 07:06:59;;;;;;;36.90;31.00;;;;;;;;;;5083101;28;20229;-57
2021/04/29 07:09:26;;;;;;;34.73;30.17;;;;;;;;;;5084456;28;20443;-57
2021/04/29 07:11:53;;;;;;;34.50;29.60;;;;;;;;;;5084309;28;20458;-58
2021/04/29 07:14:20;;;;;;;31.20;27.77;;;;;;;;;;5085705;28;20577;-55
2021/04/29 07:16:48;;;;;;;32.20;28.30;;;;;;;;;;5085785;28;20466;-57
2021/04/29 07:19:15;;;;;;;33.20;28.43;;;;;;;;;;5083351;28;20512;-57
2021/04/29 07:21:42;;;;;;;29.20;25.90;;;;;;;;;;5081415;28;20473;-57
2021/04/29 07:24:09;;;;;;;30.48;26.55;;;;;;;;;;5080490;28;20458;-57
2021/04/29 07:26:36;;;;;;;32.50;27.90;;;;;;;;;;5079654;28;20716;-55
2021/04/29 07:29:03;;;;;;;30.35;27.25;;;;;;;;;;5083557;28;20442;-56
2021/04/29 07:31:31;;;;;;;31.00;27.65;;;;;;;;;;5087169;28;20201;-58
2021/04/29 07:33:59;;;;;;;35.60;29.03;;;;;;;;;;5086964;28;20204;-58
2021/04/29 07:36:25;;;;;;;31.50;28.17;;;;;;;;;;5087139;28;20459;-58
2021/04/29 07:38:52;;;;;;;31.33;28.02;;;;;;;;;;5084845;28;20800;-57
2021/04/29 07:41:23;;;;;;;33.55;29.90;;;;;;;;;;5084637;28;20224;-58
2021/04/29 07:43:50;;;;;;;34.57;29.47;;;;;;;;;;5087565;28;20617;-57
2021/04/29 07:46:17;;;;;;;33.57;30.07;;;;;;;;;;5086144;28;20490;-57
2021/04/29 07:48:44;;;;;;;35.67;31.97;;;;;;;;;;5085883;28;20566;-58
2021/04/29 07:51:11;;;;;;;34.80;30.43;;;;;;;;;;5086204;28;20465;-58
2021/04/29 07:53:38;;;;;;;33.90;30.00;;;;;;;;;;5085729;28;20447;-57
2021/04/29 07:56:05;;;;;;;33.22;29.63;;;;;;;;;;5085226;28;20443;-58
2021/04/29 07:58:32;;;;;;;33.28;29.77;;;;;;;;;;5083614;28;20201;-57
2021/04/29 08:00:59;;;;;;;36.10;28.50;;;;;;;;;;5083313;28;20213;-58
2021/04/29 08:03:25;;;;;;;33.80;30.20;;;;;;;;;;5083658;28;20448;-58
2021/04/29 08:05:52;;;;;;;34.50;29.50;;;;;;;;;;5083501;28;20204;-57
2021/04/29 08:08:20;;;;;;;32.50;28.80;;;;;;;;;;5083126;28;20479;-58
2021/04/29 08:10:47;;;;;;;30.80;27.67;;;;;;;;;;5080815;28;20443;-58
2021/04/29 08:13:14;;;;;;;30.98;27.30;;;;;;;;;;5084688;28;20817;-57
2021/04/29 08:15:41;;;;;;;34.90;31.40;;;;;;;;;;5081791;28;20493;-58
2021/04/29 08:18:08;;;;;;;34.50;30.83;;;;;;;;;;5079317;28;20467;-58
2021/04/29 08:20:35;;;;;;;31.30;27.93;;;;;;;;;;5080819;28;20240;-58
2021/04/29 08:23:02;;;;;;;32.57;29.07;;;;;;;;;;5079723;28;20887;-58
2021/04/29 08:25:30;;;;;;;32.13;28.77;;;;;;;;;;5079689;28;20462;-58
2021/04/29 08:27:57;;;;;;;30.43;27.33;;;;;;;;;;5081170;28;20490;-58
2021/04/29 08:30:27;;;;;;;27.90;25.00;;;;;;;;;;5080194;28;20946;-57
2021/04/29 08:32:54;;;;;;;29.83;26.77;;;;;;;;;;5079814;28;20479;-58
2021/04/29 08:35:21;;;;;;;29.27;26.27;;;;;;;;;;5079283;28;20450;-58
2021/04/29 08:37:47;;;;;;;30.23;26.93;;;;;;;;;;5079095;28;20463;-58
2021/04/29 08:40:14;;;;;;;29.57;26.40;;;;;;;;;;5080311;28;20443;-58
2021/04/29 08:42:43;;;;;;;24.63;22.13;;;;;;;;;;5080158;28;20443;-59
2021/04/29 08:45:10;;;;;;;25.40;22.70;;;;;;;;;;5078226;28;20459;-58
2021/04/29 08:47:37;;;;;;;28.60;25.63;;;;;;;;;;5077662;28;20488;-61
2021/04/29 08:50:04;;;;;;;28.27;25.30;;;;;;;;;;5078506;28;20455;-59
2021/04/29 08:52:32;;;;;;;25.37;22.40;;;;;;;;;;5076608;28;20492;-58
2021/04/29 08:54:58;;;;;;;25.97;23.27;;;;;;;;;;5081332;28;20447;-58
2021/04/29 08:57:26;;;;;;;24.03;21.73;;;;;;;;;;5083262;28;20466;-60
2021/04/29 08:59:54;;;;;;;22.07;19.93;;;;;;;;;;5083906;28;20448;-59
2021/04/29 09:02:32;;;;;;;21.27;19.07;;;;;;;;;;5081098;28;20448;-58
2021/04/29 09:05:08;;;;;;;22.70;20.40;;;;;;;;;;5082543;28;20490;-59
2021/04/29 09:07:35;;;;;;;20.90;18.80;;;;;;;;;;5081664;28;20483;-58
2021/04/29 09:10:02;;;;;;;20.97;18.87;;;;;;;;;;5083907;28;20819;-59
2021/04/29 09:12:33;;;;;;;20.23;18.20;;;;;;;;;;5082723;28;20445;-59
2021/04/29 09:15:01;;;;;;;21.03;19.03;;;;;;;;;;5083518;28;20434;-59
2021/04/29 09:17:27;;;;;;;19.77;17.97;;;;;;;;;;5081339;28;20460;-58
2021/04/29 09:19:54;;;;;;;18.50;16.80;;;;;;;;;;5080584;28;20440;-58
2021/04/29 09:22:23;;;;;;;20.03;18.13;;;;;;;;;;5080447;28;20452;-58
2021/04/29 09:24:50;;;;;;;19.87;17.87;;;;;;;;;;5078577;28;20488;-58
2021/04/29 09:27:18;;;;;;;20.33;18.27;;;;;;;;;;5079674;28;20499;-59
2021/04/29 09:29:52;;;;;;;19.90;18.00;;;;;;;;;;5079215;28;20509;-58
2021/04/29 09:32:23;;;;;;;19.67;17.70;;;;;;;;;;5078883;28;20446;-59
2021/04/29 09:34:50;;;;;;;20.80;18.50;;;;;;;;;;5078447;28;20443;-59
2021/04/29 09:37:26;;;;;;;21.50;19.33;;;;;;;;;;5079428;28;20459;-59
2021/04/29 09:39:53;;;;;;;25.70;20.10;;;;;;;;;;5078462;28;20433;-58
2021/04/29 09:42:27;;;;;;;27.10;22.30;;;;;;;;;;5078105;28;20445;-58
2021/04/29 09:44:54;;;;;;;22.83;20.53;;;;;;;;;;5079161;28;20460;-58
2021/04/29 09:47:20;;;;;;;23.13;20.73;;;;;;;;;;5079796;28;20545;-58
2021/04/29 09:49:48;;;;;;;23.80;21.30;;;;;;;;;;5079778;28;20449;-58
2021/04/29 09:52:19;;;;;;;22.60;20.50;;;;;;;;;;5078852;28;20827;-58
2021/04/29 09:54:46;;;;;;;22.87;20.57;;;;;;;;;;5078862;28;20998;-58
2021/04/29 09:57:16;;;;;;;23.10;20.90;;;;;;;;;;5077383;28;20977;-58
2021/04/29 09:59:48;;;;;;;20.10;18.17;;;;;;;;;;5077933;28;20430;-59
2021/04/29 10:02:15;;;;;;;19.60;17.80;;;;;;;;;;5079040;28;20451;-59
2021/04/29 10:04:43;;;;;;;19.93;18.03;;;;;;;;;;5076254;28;20446;-59
2021/04/29 10:07:11;;;;;;;22.30;20.30;;;;;;;;;;5076215;28;20486;-58
2021/04/29 10:09:38;;;;;;;22.23;20.03;;;;;;;;;;5078461;28;20450;-58
2021/04/29 10:12:07;;;;;;;20.13;18.33;;;;;;;;;;5079799;28;20448;-58
2021/04/29 10:14:34;;;;;;;21.63;19.53;;;;;;;;;;5078080;28;20443;-57
2021/04/29 10:17:03;;;;;;;21.70;19.40;;;;;;;;;;5078620;28;20517;-59
2021/04/29 10:19:31;;;;;;;20.73;18.83;;;;;;;;;;5077524;28;20451;-57
2021/04/29 10:21:59;;;;;;;21.67;19.57;;;;;;;;;;5078532;28;20450;-58
2021/04/29 10:24:27;;;;;;;21.07;19.17;;;;;;;;;;5077702;28;20447;-57
2021/04/29 10:27:01;;;;;;;21.87;19.70;;;;;;;;;;5075502;28;20574;-58
2021/04/29 10:29:28;;;;;;;24.10;21.60;;;;;;;;;;5076258;28;20486;-58
2021/04/29 10:31:56;;;;;;;24.30;21.93;;;;;;;;;;5077634;28;20995;-58
2021/04/29 10:34:23;;;;;;;23.73;21.33;;;;;;;;;;5077206;28;20503;-60
2021/04/29 10:36:51;;;;;;;26.23;23.63;;;;;;;;;;5076105;28;20460;-58
2021/04/29 10:39:18;;;;;;;24.30;21.80;;;;;;;;;;5077679;28;20790;-57
2021/04/29 10:41:47;;;;;;;22.73;20.43;;;;;;;;;;5079020;28;20461;-57
2021/04/29 10:44:15;;;;;;;23.57;21.43;;;;;;;;;;5078404;28;20439;-58
2021/04/29 10:46:41;;;;;;;22.10;20.00;;;;;;;;;;5078300;28;20486;-58
2021/04/29 10:49:10;;;;;;;20.43;18.40;;;;;;;;;;5079527;28;20826;-59
2021/04/29 10:51:37;;;;;;;21.73;19.60;;;;;;;;;;5079093;28;20482;-60
2021/04/29 10:54:11;;;;;;;20.63;18.73;;;;;;;;;;5078030;28;20535;-58
2021/04/29 10:56:38;;;;;;;68.20;53.73;;;;;;;;;;5078804;28;20464;-58
2021/04/29 10:59:11;;;;;;;43.33;36.53;;;;;;;;;;5090075;28;20482;-58
2021/04/29 11:01:42;;;;;;;31.90;26.87;;;;;;;;;;5088490;28;20454;-57
2021/04/29 11:04:16;;;;;;;25.27;22.63;;;;;;;;;;5077976;28;20456;-58
2021/04/29 11:06:43;;;;;;;20.77;18.83;;;;;;;;;;5076629;28;20819;-58
2021/04/29 11:09:17;;;;;;;20.00;18.23;;;;;;;;;;5076885;28;20833;-58
2021/04/29 11:11:44;;;;;;;19.53;17.67;;;;;;;;;;5077474;28;20519;-58
2021/04/29 11:14:13;;;;;;;20.07;18.20;;;;;;;;;;5078592;28;20518;-59
2021/04/29 11:16:44;;;;;;;19.77;17.97;;;;;;;;;;5078312;28;20489;-58
2021/04/29 11:19:33;;;;;;;18.10;16.53;;;;;;;;;;5079377;28;20843;-59
2021/04/29 11:22:01;;;;;;;19.77;17.87;;;;;;;;;;5080015;28;20434;-59
2021/04/29 11:24:32;;;;;;;20.10;18.10;;;;;;;;;;5080389;28;20459;-58
2021/04/29 11:26:59;;;;;;;20.03;18.13;;;;;;;;;;5079156;28;20489;-58
2021/04/29 11:29:36;;;;;;;20.00;18.10;;;;;;;;;;5079376;28;20452;-59
2021/04/29 11:32:03;;;;;;;21.53;19.53;;;;;;;;;;5080076;28;20869;-60
2021/04/29 11:34:39;;;;;;;22.27;19.97;;;;;;;;;;5079687;28;20450;-57
2021/04/29 11:37:06;;;;;;;21.13;19.17;;;;;;;;;;5076975;28;20483;-57
2021/04/29 11:39:32;;;;;;;23.40;21.00;;;;;;;;;;5078883;28;20448;-59
2021/04/29 11:41:59;;;;;;;22.07;20.00;;;;;;;;;;5078593;28;20527;-59
2021/04/29 11:44:27;;;;;;;23.43;21.13;;;;;;;;;;5078942;28;20446;-58
2021/04/29 11:46:55;;;;;;;14.23;12.77;;;;;;;;;;5079177;28;20486;-59
2021/04/29 11:49:22;;;;;;;16.77;15.13;;;;;;;;;;5075759;28;20440;-58
2021/04/29 11:51:49;;;;;;;16.83;13.80;;;;;;;;;;5074023;28;20550;-57
2021/04/29 11:54:18;;;;;;;17.83;16.10;;;;;;;;;;5073940;28;20451;-57
2021/04/29 11:56:45;;;;;;;21.15;18.95;;;;;;;;;;5074081;28;20835;-57
2021/04/29 11:59:12;;;;;;;18.57;16.57;;;;;;;;;;5076341;28;20209;-56
2021/04/29 12:01:39;;;;;;;18.23;14.60;;;;;;;;;;5074539;28;20457;-56
2021/04/29 12:04:15;;;;;;;18.93;17.00;;;;;;;;;;5073844;28;20451;-57
2021/04/29 12:06:49;;;;;;;16.80;15.20;;;;;;;;;;5073075;28;21036;-57
2021/04/29 12:09:15;;;;;;;21.73;17.00;;;;;;;;;;5073352;28;20438;-57
2021/04/29 12:11:42;;;;;;;19.97;17.70;;;;;;;;;;5072928;28;20446;-56
2021/04/29 12:14:09;;;;;;;19.77;17.87;;;;;;;;;;5072925;28;20447;-57
2021/04/29 12:16:36;;;;;;;21.03;18.83;;;;;;;;;;5072974;28;20466;-57
2021/04/29 12:19:03;;;;;;;20.23;18.13;;;;;;;;;;5073048;28;20547;-55
2021/04/29 12:21:33;;;;;;;21.00;19.00;;;;;;;;;;5073261;28;20517;-56
2021/04/29 12:24:00;;;;;;;21.90;19.50;;;;;;;;;;5072765;28;20448;-57
2021/04/29 12:26:31;;;;;;;21.10;19.20;;;;;;;;;;5072267;28;20474;-57
2021/04/29 12:29:01;;;;;;;22.37;20.17;;;;;;;;;;5075600;28;20428;-59
2021/04/29 12:31:29;;;;;;;22.80;20.40;;;;;;;;;;5077433;28;20450;-56
2021/04/29 12:33:56;;;;;;;21.80;19.83;;;;;;;;;;5077193;28;20443;-57
2021/04/29 12:36:23;;;;;;;21.90;19.70;;;;;;;;;;5076908;28;20930;-56
2021/04/29 12:38:51;;;;;;;22.53;20.23;;;;;;;;;;5077979;28;20513;-57
2021/04/29 12:41:18;;;;;;;21.97;19.87;;;;;;;;;;5076832;28;20452;-57
2021/04/29 12:43:56;;;;;;;20.90;19.00;;;;;;;;;;5076599;28;20459;-57
2021/04/29 12:46:29;;;;;;;19.60;17.60;;;;;;;;;;5076327;28;20561;-55
2021/04/29 12:48:56;;;;;;;21.73;17.50;;;;;;;;;;5076964;28;20432;-56
2021/04/29 12:51:23;;;;;;;20.50;18.57;;;;;;;;;;5076767;28;20453;-56
2021/04/29 12:53:54;;;;;;;19.63;17.70;;;;;;;;;;5076844;28;20453;-56
2021/04/29 12:56:25;;;;;;;20.57;18.60;;;;;;;;;;5076521;28;20480;-56
2021/04/29 12:58:52;;;;;;;19.27;17.00;;;;;;;;;;5076682;28;20818;-55
2021/04/29 13:01:20;;;;;;;19.63;17.53;;;;;;;;;;5076618;28;20948;-57
2021/04/29 13:03:46;;;;;;;17.97;16.17;;;;;;;;;;5076656;28;20457;-56
2021/04/29 13:06:14;;;;;;;18.87;17.07;;;;;;;;;;5076243;28;20962;-56
2021/04/29 13:08:55;;;;;;;19.63;17.63;;;;;;;;;;5076308;28;20488;-57
2021/04/29 13:11:31;;;;;;;17.43;15.73;;;;;;;;;;5075988;28;20959;-57
2021/04/29 13:14:05;;;;;;;20.23;17.30;;;;;;;;;;5076186;28;20464;-57
2021/04/29 13:16:32;;;;;;;23.70;18.10;;;;;;;;;;5076094;28;20836;-56
2021/04/29 13:19:00;;;;;;;23.20;17.13;;;;;;;;;;5076240;28;20497;-57
2021/04/29 13:21:27;;;;;;;18.27;16.57;;;;;;;;;;5076137;28;20449;-58
2021/04/29 13:23:55;;;;;;;19.17;16.70;;;;;;;;;;5075550;28;20545;-57
2021/04/29 13:26:22;;;;;;;19.03;17.10;;;;;;;;;;5075499;28;20489;-57
2021/04/29 13:28:49;;;;;;;17.10;15.30;;;;;;;;;;5076346;28;20462;-57
2021/04/29 13:31:16;;;;;;;16.70;14.90;;;;;;;;;;5075889;28;20470;-56
2021/04/29 13:33:43;;;;;;;16.77;15.07;;;;;;;;;;5075888;28;20443;-57
2021/04/29 13:36:11;;;;;;;17.47;14.93;;;;;;;;;;5075163;28;20943;-56
2021/04/29 13:38:38;;;;;;;16.00;14.40;;;;;;;;;;5075239;28;20436;-56
2021/04/29 13:41:05;;;;;;;16.03;14.53;;;;;;;;;;5075551;28;20447;-56
2021/04/29 13:43:33;;;;;;;16.10;14.50;;;;;;;;;;5075862;28;20432;-56
2021/04/29 13:46:01;;;;;;;18.47;16.77;;;;;;;;;;5075372;28;20443;-56
2021/04/29 13:48:28;;;;;;;20.65;18.55;;;;;;;;;;5074387;28;20446;-55
2021/04/29 13:50:55;;;;;;;20.53;18.43;;;;;;;;;;5075106;28;20676;-56
2021/04/29 13:53:22;;;;;;;24.00;20.80;;;;;;;;;;5075576;28;20473;-55
2021/04/29 13:55:50;;;;;;;21.60;19.33;;;;;;;;;;5075236;28;20504;-55
2021/04/29 13:58:18;;;;;;;24.30;21.83;;;;;;;;;;5074822;28;20990;-56
2021/04/29 14:00:45;;;;;;;23.80;21.30;;;;;;;;;;5075146;28;20502;-56
2021/04/29 14:03:11;;;;;;;25.67;20.87;;;;;;;;;;5074502;28;20539;-55
2021/04/29 14:05:38;;;;;;;22.70;20.27;;;;;;;;;;5074815;28;20448;-56
2021/04/29 14:08:06;;;;;;;24.17;21.87;;;;;;;;;;5101169;22;20491;-58
2021/04/29 14:10:33;;;;;;;23.10;20.60;;;;;;;;;;5098632;28;20442;-60
2021/04/29 14:13:01;;;;;;;19.37;16.87;;;;;;;;;;5099087;28;20479;-59
2021/04/29 14:15:30;;;;;;;19.73;17.47;;;;;;;;;;5100570;28;20486;-60
2021/04/29 14:17:57;;;;;;;20.43;18.23;;;;;;;;;;5099778;28;20542;-59
2021/04/29 14:20:25;;;;;;;18.13;16.23;;;;;;;;;;5099571;28;20444;-59
2021/04/29 14:22:52;;;;;;;20.20;16.80;;;;;;;;;;5099196;28;20521;-58
2021/04/29 14:25:20;;;;;;;15.80;13.40;;;;;;;;;;5099061;28;20455;-58